sensor_id;sensor_type;location;lat;lon;timestamp;pressure;altitude;pressure_sealevel;temperature;humidity
26083;BME280;13848;49.018;12.078;2023-11-21T00:01:47;97108.53;;;7.24;93.57
26083;BME280;13848;49.018;12.078;2023-11-21T00:04:13;97105.84;;;7.31;92.93
26083;BME280;13848;49.018;12.078;2023-11-21T00:06:39;97107.66;;;7.37;92.35
26083;BME280;13848;49.018;12.078;2023-11-21T00:09:05;97106.84;;;7.30;92.61
26083;BME280;13848;49.018;12.078;2023-11-21T00:11:31;97105.19;;;7.29;92.46
26083;BME280;13848;49.018;12.078;2023-11-21T00:13:57;97103.16;;;7.24;92.28
26083;BME280;13848;49.018;12.078;2023-11-21T00:16:23;97115.06;;;7.35;92.23
26083;BME280;13848;49.018;12.078;2023-11-21T00:18:51;97113.44;;;7.34;92.26
26083;BME280;13848;49.018;12.078;2023-11-21T00:21:17;97109.34;;;7.31;91.88
26083;BME280;13848;49.018;12.078;2023-11-21T00:23:43;97107.25;;;7.33;91.99
26083;BME280;13848;49.018;12.078;2023-11-21T00:26:08;97106.28;;;7.21;91.51
26083;BME280;13848;49.018;12.078;2023-11-21T00:28:34;97114.09;;;7.23;91.98
26083;BME280;13848;49.018;12.078;2023-11-21T00:31:00;97109.78;;;7.22;92.13
26083;BME280;13848;49.018;12.078;2023-11-21T00:33:26;97117.75;;;7.35;91.31
26083;BME280;13848;49.018;12.078;2023-11-21T00:35:54;97113.00;;;7.37;90.91
26083;BME280;13848;49.018;12.078;2023-11-21T00:38:20;97114.66;;;7.38;91.29
26083;BME280;13848;49.018;12.078;2023-11-21T00:40:46;97117.34;;;7.38;91.23
26083;BME280;13848;49.018;12.078;2023-11-21T00:43:12;97113.25;;;7.29;90.81
26083;BME280;13848;49.018;12.078;2023-11-21T00:45:38;97110.88;;;7.14;91.76
26083;BME280;13848;49.018;12.078;2023-11-21T00:48:04;97119.13;;;7.06;92.24
26083;BME280;13848;49.018;12.078;2023-11-21T00:50:30;97119.38;;;6.98;92.69
26083;BME280;13848;49.018;12.078;2023-11-21T00:52:57;97113.69;;;6.81;93.85
26083;BME280;13848;49.018;12.078;2023-11-21T00:55:23;97122.28;;;6.96;93.61
26083;BME280;13848;49.018;12.078;2023-11-21T00:57:49;97121.38;;;7.15;92.57
26083;BME280;13848;49.018;12.078;2023-11-21T01:00:16;97120.59;;;7.08;92.10
26083;BME280;13848;49.018;12.078;2023-11-21T01:02:43;97124.28;;;7.07;91.65
26083;BME280;13848;49.018;12.078;2023-11-21T01:05:09;97118.50;;;7.10;92.28
26083;BME280;13848;49.018;12.078;2023-11-21T01:07:35;97123.38;;;7.27;91.70
26083;BME280;13848;49.018;12.078;2023-11-21T01:10:03;97128.69;;;7.33;91.28
26083;BME280;13848;49.018;12.078;2023-11-21T01:12:29;97131.16;;;7.35;91.69
26083;BME280;13848;49.018;12.078;2023-11-21T01:14:55;97132.19;;;7.34;91.41
26083;BME280;13848;49.018;12.078;2023-11-21T01:17:21;97136.91;;;7.38;91.79
26083;BME280;13848;49.018;12.078;2023-11-21T01:19:46;97127.44;;;7.36;91.10
26083;BME280;13848;49.018;12.078;2023-11-21T01:22:12;97126.44;;;7.30;91.06
26083;BME280;13848;49.018;12.078;2023-11-21T01:24:38;97123.75;;;7.37;91.39
26083;BME280;13848;49.018;12.078;2023-11-21T01:27:06;97124.50;;;7.44;91.38
26083;BME280;13848;49.018;12.078;2023-11-21T01:29:32;97124.50;;;7.44;90.87
26083;BME280;13848;49.018;12.078;2023-11-21T01:31:58;97122.88;;;7.43;91.62
26083;BME280;13848;49.018;12.078;2023-11-21T01:34:24;97121.19;;;7.42;91.04
26083;BME280;13848;49.018;12.078;2023-11-21T01:36:49;97122.06;;;7.36;91.59
26083;BME280;13848;49.018;12.078;2023-11-21T01:39:15;97125.78;;;7.35;91.95
26083;BME280;13848;49.018;12.078;2023-11-21T01:41:41;97124.16;;;7.34;91.69
26083;BME280;13848;49.018;12.078;2023-11-21T01:44:09;97121.88;;;7.37;91.53
26083;BME280;13848;49.018;12.078;2023-11-21T01:46:35;97119.78;;;7.39;91.04
26083;BME280;13848;49.018;12.078;2023-11-21T01:49:01;97123.75;;;7.37;90.55
26083;BME280;13848;49.018;12.078;2023-11-21T01:51:27;97124.41;;;7.26;90.55
26083;BME280;13848;49.018;12.078;2023-11-21T01:53:53;97121.78;;;7.12;90.60
26083;BME280;13848;49.018;12.078;2023-11-21T01:56:19;97119.75;;;7.08;91.34
26083;BME280;13848;49.018;12.078;2023-11-21T01:58:46;97116.00;;;7.15;90.95
26083;BME280;13848;49.018;12.078;2023-11-21T02:01:13;97118.25;;;7.18;90.83
26083;BME280;13848;49.018;12.078;2023-11-21T02:03:39;97116.56;;;7.31;90.33
26083;BME280;13848;49.018;12.078;2023-11-21T02:06:05;97121.06;;;7.30;90.35
26083;BME280;13848;49.018;12.078;2023-11-21T02:08:31;97119.25;;;7.31;90.26
26083;BME280;13848;49.018;12.078;2023-11-21T02:10:57;97118.38;;;7.37;89.65
26083;BME280;13848;49.018;12.078;2023-11-21T02:13:23;97122.06;;;7.42;89.21
26083;BME280;13848;49.018;12.078;2023-11-21T02:15:49;97124.34;;;7.39;89.68
26083;BME280;13848;49.018;12.078;2023-11-21T02:18:16;97113.16;;;7.42;89.59
26083;BME280;13848;49.018;12.078;2023-11-21T02:20:43;97114.66;;;7.38;89.73
26083;BME280;13848;49.018;12.078;2023-11-21T02:23:10;97109.88;;;7.40;89.88
26083;BME280;13848;49.018;12.078;2023-11-21T02:25:36;97115.28;;;7.33;89.73
26083;BME280;13848;49.018;12.078;2023-11-21T02:28:03;97122.28;;;7.34;90.22
26083;BME280;13848;49.018;12.078;2023-11-21T02:30:29;97114.66;;;7.38;89.93
26083;BME280;13848;49.018;12.078;2023-11-21T02:32:55;97110.94;;;7.39;90.31
26083;BME280;13848;49.018;12.078;2023-11-21T02:35:22;97112.59;;;7.33;90.22
26083;BME280;13848;49.018;12.078;2023-11-21T02:37:48;97108.38;;;7.19;90.08
26083;BME280;13848;49.018;12.078;2023-11-21T02:40:15;97110.81;;;7.20;90.50
26083;BME280;13848;49.018;12.078;2023-11-21T02:42:41;97108.97;;;7.21;90.59
26083;BME280;13848;49.018;12.078;2023-11-21T02:45:08;97107.09;;;7.22;90.31
26083;BME280;13848;49.018;12.078;2023-11-21T02:47:34;97099.91;;;7.15;90.80
26083;BME280;13848;49.018;12.078;2023-11-21T02:50:00;97092.69;;;7.16;90.96
26083;BME280;13848;49.018;12.078;2023-11-21T02:52:26;97100.75;;;7.16;91.15
26083;BME280;13848;49.018;12.078;2023-11-21T02:54:52;97093.53;;;7.16;91.28
26083;BME280;13848;49.018;12.078;2023-11-21T02:57:19;97089.38;;;7.20;91.52
26083;BME280;13848;49.018;12.078;2023-11-21T02:59:45;97086.69;;;7.20;90.88
26083;BME280;13848;49.018;12.078;2023-11-21T03:02:11;97083.38;;;7.18;91.34
26083;BME280;13848;49.018;12.078;2023-11-21T03:04:37;97086.06;;;7.18;91.21
26083;BME280;13848;49.018;12.078;2023-11-21T03:07:03;97090.25;;;7.14;91.61
26083;BME280;13848;49.018;12.078;2023-11-21T03:09:29;97085.84;;;7.27;90.99
26083;BME280;13848;49.018;12.078;2023-11-21T03:11:55;97082.75;;;7.23;90.54
26083;BME280;13848;49.018;12.078;2023-11-21T03:14:22;97084.25;;;7.19;90.69
26083;BME280;13848;49.018;12.078;2023-11-21T03:16:48;97081.75;;;7.17;90.52
26083;BME280;13848;49.018;12.078;2023-11-21T03:19:14;97073.34;;;7.07;91.11
26083;BME280;13848;49.018;12.078;2023-11-21T03:21:40;97079.16;;;7.04;91.69
26083;BME280;13848;49.018;12.078;2023-11-21T03:24:07;97079.34;;;7.09;91.88
26083;BME280;13848;49.018;12.078;2023-11-21T03:26:33;97076.03;;;7.07;92.08
26083;BME280;13848;49.018;12.078;2023-11-21T03:28:59;97078.69;;;7.14;92.39
26083;BME280;13848;49.018;12.078;2023-11-21T03:31:26;97072.66;;;7.18;92.34
26083;BME280;13848;49.018;12.078;2023-11-21T03:33:52;97075.97;;;7.20;91.91
26083;BME280;13848;49.018;12.078;2023-11-21T03:36:18;97081.34;;;7.20;91.97
26083;BME280;13848;49.018;12.078;2023-11-21T03:38:44;97076.38;;;7.17;92.10
26083;BME280;13848;49.018;12.078;2023-11-21T03:41:10;97080.13;;;7.16;92.77
26083;BME280;13848;49.018;12.078;2023-11-21T03:43:36;97079.34;;;7.09;92.74
26083;BME280;13848;49.018;12.078;2023-11-21T03:46:02;97080.38;;;7.08;93.33
26083;BME280;13848;49.018;12.078;2023-11-21T03:48:29;97079.41;;;6.96;92.82
26083;BME280;13848;49.018;12.078;2023-11-21T03:50:55;97077.69;;;7.08;93.01
26083;BME280;13848;49.018;12.078;2023-11-21T03:53:21;97080.50;;;6.82;94.17
26083;BME280;13848;49.018;12.078;2023-11-21T03:55:47;97079.44;;;6.83;94.05
26083;BME280;13848;49.018;12.078;2023-11-21T03:58:13;97077.75;;;6.95;93.89
26083;BME280;13848;49.018;12.078;2023-11-21T04:00:39;97082.88;;;7.03;93.48
26083;BME280;13848;49.018;12.078;2023-11-21T04:03:05;97085.25;;;6.80;94.22
26083;BME280;13848;49.018;12.078;2023-11-21T04:05:32;97082.56;;;6.80;94.62
26083;BME280;13848;49.018;12.078;2023-11-21T04:07:58;97094.72;;;6.76;94.22
26083;BME280;13848;49.018;12.078;2023-11-21T04:10:24;97093.97;;;6.62;95.38
26083;BME280;13848;49.018;12.078;2023-11-21T04:12:50;97087.34;;;6.64;95.99
26083;BME280;13848;49.018;12.078;2023-11-21T04:15:16;97097.88;;;6.59;95.84
26083;BME280;13848;49.018;12.078;2023-11-21T04:17:42;97099.50;;;6.74;95.37
26083;BME280;13848;49.018;12.078;2023-11-21T04:20:08;97100.03;;;6.89;95.53
26083;BME280;13848;49.018;12.078;2023-11-21T04:22:37;97096.34;;;6.90;94.99
26083;BME280;13848;49.018;12.078;2023-11-21T04:25:04;97101.50;;;6.85;95.02
26083;BME280;13848;49.018;12.078;2023-11-21T04:27:30;97102.97;;;6.81;95.36
26083;BME280;13848;49.018;12.078;2023-11-21T04:29:56;97107.16;;;6.63;95.82
26083;BME280;13848;49.018;12.078;2023-11-21T04:32:22;97099.69;;;6.72;95.58
26083;BME280;13848;49.018;12.078;2023-11-21T04:34:47;97103.84;;;6.68;96.58
26083;BME280;13848;49.018;12.078;2023-11-21T04:37:13;97107.16;;;6.57;96.53
26083;BME280;13848;49.018;12.078;2023-11-21T04:39:41;97102.25;;;6.47;97.02
26083;BME280;13848;49.018;12.078;2023-11-21T04:42:07;97108.00;;;6.51;97.72
26083;BME280;13848;49.018;12.078;2023-11-21T04:44:33;97099.09;;;6.63;97.44
26083;BME280;13848;49.018;12.078;2023-11-21T04:46:59;97105.53;;;6.56;97.39
26083;BME280;13848;49.018;12.078;2023-11-21T04:49:24;97099.72;;;6.59;96.50
26083;BME280;13848;49.018;12.078;2023-11-21T04:51:50;97096.41;;;6.70;96.69
26083;BME280;13848;49.018;12.078;2023-11-21T04:54:17;97104.84;;;6.74;96.36
26083;BME280;13848;49.018;12.078;2023-11-21T04:56:44;97103.75;;;6.88;96.40
26083;BME280;13848;49.018;12.078;2023-11-21T04:59:10;97095.50;;;6.96;95.94
26083;BME280;13848;49.018;12.078;2023-11-21T05:01:36;97090.13;;;6.96;96.38
26083;BME280;13848;49.018;12.078;2023-11-21T05:04:02;97100.41;;;6.99;96.04
26083;BME280;13848;49.018;12.078;2023-11-21T05:06:28;97091.41;;;6.87;95.99
26083;BME280;13848;49.018;12.078;2023-11-21T05:08:54;97091.00;;;6.90;96.29
26083;BME280;13848;49.018;12.078;2023-11-21T05:11:24;97088.91;;;6.92;95.81
26083;BME280;13848;49.018;12.078;2023-11-21T05:13:51;97090.13;;;6.96;95.43
26083;BME280;13848;49.018;12.078;2023-11-21T05:16:17;97094.25;;;6.92;95.52
26083;BME280;13848;49.018;12.078;2023-11-21T05:18:43;97095.31;;;6.91;95.18
26083;BME280;13848;49.018;12.078;2023-11-21T05:21:09;97091.41;;;6.87;95.56
26083;BME280;13848;49.018;12.078;2023-11-21T05:23:35;97091.97;;;6.96;95.52
26083;BME280;13848;49.018;12.078;2023-11-21T05:26:01;97095.47;;;7.03;94.57
26083;BME280;13848;49.018;12.078;2023-11-21T05:28:27;97101.63;;;7.03;94.88
26083;BME280;13848;49.018;12.078;2023-11-21T05:30:54;97099.19;;;6.95;93.86
26083;BME280;13848;49.018;12.078;2023-11-21T05:33:20;97097.56;;;6.87;94.87
26083;BME280;13848;49.018;12.078;2023-11-21T05:35:46;97108.66;;;6.98;95.12
26083;BME280;13848;49.018;12.078;2023-11-21T05:38:12;97109.47;;;7.05;94.22
26083;BME280;13848;49.018;12.078;2023-11-21T05:40:38;97103.69;;;7.01;94.81
26083;BME280;13848;49.018;12.078;2023-11-21T05:43:04;97105.34;;;7.02;95.14
26083;BME280;13848;49.018;12.078;2023-11-21T05:45:30;97112.97;;;7.05;94.75
26083;BME280;13848;49.018;12.078;2023-11-21T05:47:58;97110.88;;;7.07;94.59
26083;BME280;13848;49.018;12.078;2023-11-21T05:50:24;97118.13;;;7.00;94.14
26083;BME280;13848;49.018;12.078;2023-11-21T05:52:50;97113.06;;;6.85;94.56
26083;BME280;13848;49.018;12.078;2023-11-21T05:55:16;97116.75;;;6.91;94.61
26083;BME280;13848;49.018;12.078;2023-11-21T05:57:43;97115.69;;;6.92;94.08
26083;BME280;13848;49.018;12.078;2023-11-21T06:00:11;97122.75;;;6.80;94.13
26083;BME280;13848;49.018;12.078;2023-11-21T06:02:37;97125.81;;;6.90;94.71
26083;BME280;13848;49.018;12.078;2023-11-21T06:05:06;97126.81;;;6.89;94.15
26083;BME280;13848;49.018;12.078;2023-11-21T06:07:32;97126.44;;;6.85;94.13
26083;BME280;13848;49.018;12.078;2023-11-21T06:09:58;97132.00;;;6.84;94.73
26083;BME280;13848;49.018;12.078;2023-11-21T06:12:24;97128.97;;;6.74;94.61
26083;BME280;13848;49.018;12.078;2023-11-21T06:14:50;97127.69;;;6.83;94.87
26083;BME280;13848;49.018;12.078;2023-11-21T06:17:15;97134.66;;;6.97;94.51
26083;BME280;13848;49.018;12.078;2023-11-21T06:19:41;97138.59;;;6.88;94.39
26083;BME280;13848;49.018;12.078;2023-11-21T06:22:09;97137.13;;;6.92;94.23
26083;BME280;13848;49.018;12.078;2023-11-21T06:24:35;97137.13;;;6.92;94.46
26083;BME280;13848;49.018;12.078;2023-11-21T06:27:03;97137.53;;;7.02;93.66
26083;BME280;13848;49.018;12.078;2023-11-21T06:29:29;97140.19;;;7.02;93.48
26083;BME280;13848;49.018;12.078;2023-11-21T06:31:55;97148.03;;;7.04;93.41
26083;BME280;13848;49.018;12.078;2023-11-21T06:34:21;97152.56;;;7.03;93.65
26083;BME280;13848;49.018;12.078;2023-11-21T06:36:47;97143.78;;;6.76;94.37
26083;BME280;13848;49.018;12.078;2023-11-21T06:39:14;97150.94;;;6.89;94.37
26083;BME280;13848;49.018;12.078;2023-11-21T06:41:40;97150.69;;;7.04;93.99
26083;BME280;13848;49.018;12.078;2023-11-21T06:44:06;97155.28;;;6.97;94.04
26083;BME280;13848;49.018;12.078;2023-11-21T06:46:32;97155.06;;;6.98;93.58
26083;BME280;13848;49.018;12.078;2023-11-21T06:49:01;97157.69;;;7.05;93.95
26083;BME280;13848;49.018;12.078;2023-11-21T06:51:26;97159.53;;;7.11;93.85
26083;BME280;13848;49.018;12.078;2023-11-21T06:53:52;97163.50;;;7.02;94.21
26083;BME280;13848;49.018;12.078;2023-11-21T06:56:20;97164.91;;;7.04;94.67
26083;BME280;13848;49.018;12.078;2023-11-21T06:58:46;97172.16;;;7.04;95.33
26083;BME280;13848;49.018;12.078;2023-11-21T07:01:12;97178.50;;;7.09;95.52
26083;BME280;13848;49.018;12.078;2023-11-21T07:03:38;97184.91;;;7.08;94.50
26083;BME280;13848;49.018;12.078;2023-11-21T07:06:08;97177.69;;;7.09;94.91
26083;BME280;13848;49.018;12.078;2023-11-21T07:08:34;97182.22;;;7.08;94.84
26083;BME280;13848;49.018;12.078;2023-11-21T07:11:00;97180.75;;;7.12;94.76
26083;BME280;13848;49.018;12.078;2023-11-21T07:13:27;97190.06;;;7.10;94.29
26083;BME280;13848;49.018;12.078;2023-11-21T07:15:53;97184.94;;;6.95;93.87
26083;BME280;13848;49.018;12.078;2023-11-21T07:18:19;97181.41;;;7.01;94.37
26083;BME280;13848;49.018;12.078;2023-11-21T07:20:45;97185.75;;;7.02;94.84
26083;BME280;13848;49.018;12.078;2023-11-21T07:23:11;97184.09;;;7.01;94.96
26083;BME280;13848;49.018;12.078;2023-11-21T07:25:37;97181.00;;;7.04;95.16
26083;BME280;13848;49.018;12.078;2023-11-21T07:28:03;97178.69;;;7.14;94.40
26083;BME280;13848;49.018;12.078;2023-11-21T07:30:30;97179.91;;;7.18;94.62
26083;BME280;13848;49.018;12.078;2023-11-21T07:32:56;97184.84;;;7.22;94.34
26083;BME280;13848;49.018;12.078;2023-11-21T07:35:22;97193.16;;;7.13;94.76
26083;BME280;13848;49.018;12.078;2023-11-21T07:37:48;97189.28;;;6.96;95.33
26083;BME280;13848;49.018;12.078;2023-11-21T07:40:14;97196.03;;;7.12;95.45
26083;BME280;13848;49.018;12.078;2023-11-21T07:42:40;97192.91;;;7.22;94.43
26083;BME280;13848;49.018;12.078;2023-11-21T07:45:07;97186.50;;;7.23;94.17
26083;BME280;13848;49.018;12.078;2023-11-21T07:47:35;97200.38;;;7.06;95.01
26083;BME280;13848;49.018;12.078;2023-11-21T07:50:02;97198.31;;;7.08;95.07
26083;BME280;13848;49.018;12.078;2023-11-21T07:52:28;97207.22;;;7.02;94.48
26083;BME280;13848;49.018;12.078;2023-11-21T07:54:54;97200.56;;;7.11;94.87
26083;BME280;13848;49.018;12.078;2023-11-21T07:57:20;97207.56;;;7.19;94.20
26083;BME280;13848;49.018;12.078;2023-11-21T07:59:46;97205.66;;;7.33;94.26
26083;BME280;13848;49.018;12.078;2023-11-21T08:02:12;97210.78;;;7.34;93.80
26083;BME280;13848;49.018;12.078;2023-11-21T08:04:39;97210.13;;;7.45;93.61
26083;BME280;13848;49.018;12.078;2023-11-21T08:07:05;97211.13;;;7.51;93.72
26083;BME280;13848;49.018;12.078;2023-11-21T08:09:31;97211.13;;;7.51;94.06
26083;BME280;13848;49.018;12.078;2023-11-21T08:11:57;97207.16;;;7.60;94.24
26083;BME280;13848;49.018;12.078;2023-11-21T08:14:23;97213.53;;;7.59;93.94
26083;BME280;13848;49.018;12.078;2023-11-21T08:16:49;97212.34;;;7.55;93.73
26083;BME280;13848;49.018;12.078;2023-11-21T08:19:15;97216.06;;;7.54;93.56
26083;BME280;13848;49.018;12.078;2023-11-21T08:21:42;97216.06;;;7.54;93.72
26083;BME280;13848;49.018;12.078;2023-11-21T08:24:08;97220.44;;;7.49;93.92
26083;BME280;13848;49.018;12.078;2023-11-21T08:26:34;97224.31;;;7.53;93.99
26083;BME280;13848;49.018;12.078;2023-11-21T08:29:00;97218.94;;;7.53;93.95
26083;BME280;13848;49.018;12.078;2023-11-21T08:31:26;97231.31;;;7.60;93.68
26083;BME280;13848;49.018;12.078;2023-11-21T08:33:52;97230.47;;;7.66;93.79
26083;BME280;13848;49.018;12.078;2023-11-21T08:36:18;97236.59;;;7.73;92.95
26083;BME280;13848;49.018;12.078;2023-11-21T08:38:45;97228.72;;;7.79;92.00
26083;BME280;13848;49.018;12.078;2023-11-21T08:41:11;97229.78;;;7.78;92.56
26083;BME280;13848;49.018;12.078;2023-11-21T08:43:37;97240.72;;;7.76;92.14
26083;BME280;13848;49.018;12.078;2023-11-21T08:46:04;97233.66;;;7.82;92.11
26083;BME280;13848;49.018;12.078;2023-11-21T08:48:30;97231.34;;;7.92;92.53
26083;BME280;13848;49.018;12.078;2023-11-21T08:50:56;97242.44;;;8.02;92.28
26083;BME280;13848;49.018;12.078;2023-11-21T08:53:22;97245.25;;;8.14;91.45
26083;BME280;13848;49.018;12.078;2023-11-21T08:55:49;97243.28;;;8.27;91.39
26083;BME280;13848;49.018;12.078;2023-11-21T08:58:15;97245.38;;;8.25;90.98
26083;BME280;13848;49.018;12.078;2023-11-21T09:00:41;97241.22;;;8.23;92.36
26083;BME280;13848;49.018;12.078;2023-11-21T09:03:07;97240.81;;;8.26;92.24
26083;BME280;13848;49.018;12.078;2023-11-21T09:05:33;97247.78;;;8.34;91.83
26083;BME280;13848;49.018;12.078;2023-11-21T09:07:59;97252.31;;;8.40;91.26
26083;BME280;13848;49.018;12.078;2023-11-21T09:10:25;97251.88;;;8.43;91.74
26083;BME280;13848;49.018;12.078;2023-11-21T09:12:52;97256.16;;;8.50;91.66
26083;BME280;13848;49.018;12.078;2023-11-21T09:15:18;97252.66;;;8.50;91.30
26083;BME280;13848;49.018;12.078;2023-11-21T09:17:44;97265.44;;;8.55;91.68
26083;BME280;13848;49.018;12.078;2023-11-21T09:20:10;97262.84;;;8.66;91.80
26083;BME280;13848;49.018;12.078;2023-11-21T09:22:36;97261.63;;;8.62;91.75
26083;BME280;13848;49.018;12.078;2023-11-21T09:25:03;97264.94;;;8.64;91.71
26083;BME280;13848;49.018;12.078;2023-11-21T09:27:29;97270.50;;;8.63;91.28
26083;BME280;13848;49.018;12.078;2023-11-21T09:29:56;97272.38;;;8.62;91.14
26083;BME280;13848;49.018;12.078;2023-11-21T09:32:22;97274.03;;;8.63;90.85
26083;BME280;13848;49.018;12.078;2023-11-21T09:34:48;97267.47;;;8.59;90.74
26083;BME280;13848;49.018;12.078;2023-11-21T09:37:14;97266.59;;;8.65;90.71
26083;BME280;13848;49.018;12.078;2023-11-21T09:39:40;97274.91;;;8.57;90.69
26083;BME280;13848;49.018;12.078;2023-11-21T09:42:10;97271.34;;;8.63;90.99
26083;BME280;13848;49.018;12.078;2023-11-21T09:44:54;97270.25;;;8.71;90.81
26083;BME280;13848;49.018;12.078;2023-11-21T09:47:25;97270.19;;;8.77;91.18
26083;BME280;13848;49.018;12.078;2023-11-21T09:49:54;97263.34;;;8.82;91.53
26083;BME280;13848;49.018;12.078;2023-11-21T09:52:24;97267.88;;;8.81;91.32
26083;BME280;13848;49.018;12.078;2023-11-21T09:54:52;97267.34;;;8.72;91.12
26083;BME280;13848;49.018;12.078;2023-11-21T09:57:19;97269.31;;;8.84;91.37
26083;BME280;13848;49.018;12.078;2023-11-21T09:59:46;97263.13;;;9.56;94.58
26083;BME280;13848;49.018;12.078;2023-11-21T10:02:12;97266.28;;;9.72;91.54
26083;BME280;13848;49.018;12.078;2023-11-21T10:04:40;97269.97;;;9.41;90.05
26083;BME280;13848;49.018;12.078;2023-11-21T10:07:07;97265.00;;;9.56;88.12
26083;BME280;13848;49.018;12.078;2023-11-21T10:09:33;97268.31;;;9.21;88.42
26083;BME280;13848;49.018;12.078;2023-11-21T10:12:00;97262.81;;;9.16;89.21
26083;BME280;13848;49.018;12.078;2023-11-21T10:14:26;97268.84;;;9.12;88.59
26083;BME280;13848;49.018;12.078;2023-11-21T10:16:53;97268.91;;;9.05;89.43
26083;BME280;13848;49.018;12.078;2023-11-21T10:19:20;97271.59;;;9.05;89.64
26083;BME280;13848;49.018;12.078;2023-11-21T10:21:48;97271.13;;;8.90;88.69
26083;BME280;13848;49.018;12.078;2023-11-21T10:24:14;97263.47;;;8.87;89.23
26083;BME280;13848;49.018;12.078;2023-11-21T10:26:40;97265.56;;;8.85;89.32
26083;BME280;13848;49.018;12.078;2023-11-21T10:29:07;97265.19;;;8.81;89.04
26083;BME280;13848;49.018;12.078;2023-11-21T10:31:33;97260.19;;;8.85;89.41
26083;BME280;13848;49.018;12.078;2023-11-21T10:34:12;97265.00;;;9.01;89.45
26083;BME280;13848;49.018;12.078;2023-11-21T10:36:38;97268.75;;;9.00;89.05
26083;BME280;13848;49.018;12.078;2023-11-21T10:39:06;97267.22;;;8.86;88.50
26083;BME280;13848;49.018;12.078;2023-11-21T10:41:32;97268.03;;;8.86;88.90
26083;BME280;13848;49.018;12.078;2023-11-21T10:43:58;97268.84;;;8.87;88.90
26083;BME280;13848;49.018;12.078;2023-11-21T10:46:24;97271.53;;;8.87;88.13
26083;BME280;13848;49.018;12.078;2023-11-21T10:48:52;97275.44;;;8.91;88.88
26083;BME280;13848;49.018;12.078;2023-11-21T10:51:18;97272.09;;;8.95;88.78
26083;BME280;13848;49.018;12.078;2023-11-21T10:53:44;97274.56;;;8.97;88.05
26083;BME280;13848;49.018;12.078;2023-11-21T10:56:14;97275.53;;;9.02;88.07
26083;BME280;13848;49.018;12.078;2023-11-21T10:58:40;97275.28;;;9.11;88.00
26083;BME280;13848;49.018;12.078;2023-11-21T11:01:06;97271.47;;;9.18;87.18
26083;BME280;13848;49.018;12.078;2023-11-21T11:03:34;97271.81;;;9.22;87.31
26083;BME280;13848;49.018;12.078;2023-11-21T11:06:02;97274.88;;;9.25;87.28
26083;BME280;13848;49.018;12.078;2023-11-21T11:08:29;97270.63;;;9.18;86.71
26083;BME280;13848;49.018;12.078;2023-11-21T11:10:55;97275.63;;;9.14;86.52
26083;BME280;13848;49.018;12.078;2023-11-21T11:13:23;97268.03;;;9.11;86.83
26083;BME280;13848;49.018;12.078;2023-11-21T11:15:49;97273.66;;;9.03;87.48
26083;BME280;13848;49.018;12.078;2023-11-21T11:18:16;97262.91;;;9.03;87.59
26083;BME280;13848;49.018;12.078;2023-11-21T11:20:43;97269.34;;;9.02;87.85
26083;BME280;13848;49.018;12.078;2023-11-21T11:23:26;97263.81;;;8.97;87.53
26083;BME280;13848;49.018;12.078;2023-11-21T11:26:06;97259.78;;;8.88;86.91
26083;BME280;13848;49.018;12.078;2023-11-21T11:28:44;97262.59;;;8.93;86.96
26083;BME280;13848;49.018;12.078;2023-11-21T11:31:17;97263.22;;;8.95;87.01
26083;BME280;13848;49.018;12.078;2023-11-21T11:33:52;97262.59;;;8.93;86.67
26083;BME280;13848;49.018;12.078;2023-11-21T11:36:24;97270.78;;;8.79;86.02
26083;BME280;13848;49.018;12.078;2023-11-21T11:38:51;97271.72;;;8.92;86.55
26083;BME280;13848;49.018;12.078;2023-11-21T11:41:25;97257.59;;;8.96;86.76
26083;BME280;13848;49.018;12.078;2023-11-21T11:43:52;97261.44;;;9.07;86.98
26083;BME280;13848;49.018;12.078;2023-11-21T11:46:18;97263.22;;;9.13;87.15
26083;BME280;13848;49.018;12.078;2023-11-21T11:48:44;97257.84;;;9.13;86.89
26083;BME280;13848;49.018;12.078;2023-11-21T11:51:11;97264.50;;;9.11;87.01
26083;BME280;13848;49.018;12.078;2023-11-21T11:53:39;97266.75;;;9.14;87.34
26083;BME280;13848;49.018;12.078;2023-11-21T11:56:25;97274.22;;;9.12;86.29
26083;BME280;13848;49.018;12.078;2023-11-21T11:58:54;97273.25;;;9.06;86.07
26083;BME280;13848;49.018;12.078;2023-11-21T12:01:22;97272.63;;;9.04;86.37
26083;BME280;13848;49.018;12.078;2023-11-21T12:06:47;97276.81;;;9.00;86.98
26083;BME280;13848;49.018;12.078;2023-11-21T12:09:17;97277.41;;;9.02;86.97
26083;BME280;13848;49.018;12.078;2023-11-21T12:11:44;97273.06;;;9.01;86.74
26083;BME280;13848;49.018;12.078;2023-11-21T12:14:12;97271.59;;;9.05;86.84
26083;BME280;13848;49.018;12.078;2023-11-21T12:16:39;97268.75;;;9.00;85.96
26083;BME280;13848;49.018;12.078;2023-11-21T12:19:05;97265.84;;;9.01;86.49
26083;BME280;13848;49.018;12.078;2023-11-21T12:21:31;97264.13;;;9.07;86.37
26083;BME280;13848;49.018;12.078;2023-11-21T12:23:57;97264.88;;;9.14;86.18
26083;BME280;13848;49.018;12.078;2023-11-21T12:26:23;97264.88;;;9.14;85.70
26083;BME280;13848;49.018;12.078;2023-11-21T12:28:52;97261.91;;;9.22;85.51
26083;BME280;13848;49.018;12.078;2023-11-21T12:31:19;97262.34;;;9.19;86.23
26083;BME280;13848;49.018;12.078;2023-11-21T12:33:45;97261.22;;;9.27;86.41
26083;BME280;13848;49.018;12.078;2023-11-21T12:36:11;97270.09;;;9.27;86.23
26083;BME280;13848;49.018;12.078;2023-11-21T12:38:37;97266.22;;;9.23;86.06
26083;BME280;13848;49.018;12.078;2023-11-21T12:41:04;97268.84;;;9.30;85.75
26083;BME280;13848;49.018;12.078;2023-11-21T12:43:30;97273.25;;;9.24;85.82
26083;BME280;13848;49.018;12.078;2023-11-21T12:46:05;97274.31;;;9.23;86.77
26083;BME280;13848;49.018;12.078;2023-11-21T12:48:33;97275.78;;;9.19;86.91
26083;BME280;13848;49.018;12.078;2023-11-21T12:50:59;97278.63;;;9.24;86.81
26083;BME280;13848;49.018;12.078;2023-11-21T12:53:25;97278.16;;;9.27;87.11
26083;BME280;13848;49.018;12.078;2023-11-21T12:55:51;97290.97;;;9.32;86.95
26083;BME280;13848;49.018;12.078;2023-11-21T12:58:17;97279.59;;;9.30;86.84
26083;BME280;13848;49.018;12.078;2023-11-21T13:00:45;97279.53;;;9.18;86.29